createdAt,value
2017-11-04T00:01:03.693Z,59.50
2017-11-04T00:03:30.927Z,59.30
2017-11-04T00:05:57.422Z,59.30
2017-11-04T00:08:23.868Z,59.30
2017-11-04T00:10:50.278Z,59.70
2017-11-04T00:13:16.762Z,59.60
2017-11-04T00:15:43.157Z,59.30
2017-11-04T00:18:09.687Z,59.30
2017-11-04T00:20:36.080Z,59.60
2017-11-04T00:23:02.543Z,59.80
2017-11-04T00:25:29.041Z,60.10
2017-11-04T00:27:55.447Z,60.20
2017-11-04T00:30:22.692Z,60.00
2017-11-04T00:32:49.144Z,60.00
2017-11-04T00:35:15.608Z,60.00
2017-11-04T00:37:42.099Z,59.90
2017-11-04T00:40:08.608Z,59.90
2017-11-04T00:42:35.098Z,59.90
2017-11-04T00:45:01.493Z,60.90
2017-11-04T00:47:27.965Z,60.50
2017-11-04T00:49:54.379Z,60.10
2017-11-04T00:52:20.792Z,60.00
2017-11-04T00:54:47.368Z,60.30
2017-11-04T00:57:13.836Z,60.20
2017-11-04T00:59:40.312Z,60.10
2017-11-04T01:02:06.709Z,60.40
2017-11-04T01:04:33.185Z,60.60
2017-11-04T01:06:59.662Z,60.60
2017-11-04T01:09:26.209Z,60.50
2017-11-04T01:11:52.718Z,61.00
2017-11-04T01:14:19.273Z,61.00
2017-11-04T01:16:46.478Z,60.90
2017-11-04T01:19:13.007Z,61.90
2017-11-04T01:21:39.553Z,61.30
2017-11-04T01:24:06.072Z,61.30
2017-11-04T01:26:32.528Z,61.50
2017-11-04T01:28:59.053Z,61.30
2017-11-04T01:31:26.285Z,61.50
2017-11-04T01:33:52.801Z,61.40
2017-11-04T01:36:19.309Z,61.70
2017-11-04T01:38:45.777Z,62.40
2017-11-04T01:41:12.231Z,62.60
2017-11-04T01:43:38.681Z,62.10
2017-11-04T01:46:05.303Z,62.10
2017-11-04T01:48:31.766Z,62.10
2017-11-04T01:50:58.269Z,62.20
2017-11-04T01:53:24.748Z,62.60
2017-11-04T01:55:51.216Z,62.60
2017-11-04T01:58:17.679Z,62.40
2017-11-04T02:00:44.131Z,62.20
2017-11-04T02:03:10.684Z,62.00
2017-11-04T02:05:37.150Z,62.20
2017-11-04T02:08:03.680Z,62.50
2017-11-04T02:10:30.156Z,62.10
2017-11-04T02:12:56.695Z,61.70
2017-11-04T02:15:23.153Z,61.70
2017-11-04T02:17:49.698Z,61.20
2017-11-04T02:20:16.183Z,61.30
2017-11-04T02:22:42.731Z,61.60
2017-11-04T02:25:09.250Z,61.50
2017-11-04T02:27:35.760Z,61.80
2017-11-04T02:30:02.283Z,61.70
2017-11-04T02:32:28.745Z,62.00
2017-11-04T02:34:55.263Z,61.90
2017-11-04T02:37:22.495Z,61.70
2017-11-04T02:39:49.018Z,61.60
2017-11-04T02:42:15.556Z,61.70
2017-11-04T02:44:42.080Z,62.00
2017-11-04T02:47:08.586Z,61.90
2017-11-04T02:49:35.089Z,62.00
2017-11-04T02:52:01.598Z,62.00
2017-11-04T02:54:28.101Z,62.10
2017-11-04T02:56:54.546Z,62.00
2017-11-04T02:59:21.111Z,62.10
2017-11-04T03:01:47.581Z,62.40
2017-11-04T03:04:14.088Z,62.40
2017-11-04T03:06:40.557Z,62.60
2017-11-04T03:09:07.100Z,63.00
2017-11-04T03:11:34.331Z,63.10
2017-11-04T03:14:00.865Z,63.10
2017-11-04T03:16:27.314Z,63.30
2017-11-04T03:18:53.822Z,63.00
2017-11-04T03:21:20.377Z,62.90
2017-11-04T03:23:46.879Z,62.70
2017-11-04T03:26:13.395Z,62.90
2017-11-04T03:28:39.915Z,63.00
2017-11-04T03:31:06.378Z,62.70
2017-11-04T03:33:32.825Z,62.60
2017-11-04T03:35:59.347Z,62.60
2017-11-04T03:38:25.857Z,62.50
2017-11-04T03:40:53.129Z,62.20
2017-11-04T03:43:19.604Z,62.20
2017-11-04T03:45:46.153Z,62.40
2017-11-04T03:48:12.676Z,62.40
2017-11-04T03:50:39.206Z,62.40
2017-11-04T03:53:05.712Z,62.50
2017-11-04T03:55:32.230Z,62.40
2017-11-04T03:57:59.518Z,62.60
2017-11-04T04:00:26.039Z,62.60
2017-11-04T04:02:53.371Z,62.90
2017-11-04T04:05:19.862Z,62.50
2017-11-04T04:07:46.336Z,61.40
2017-11-04T04:10:12.880Z,61.00
2017-11-04T04:12:39.401Z,60.90
2017-11-04T04:15:05.920Z,60.60
2017-11-04T04:17:32.420Z,60.70
2017-11-04T04:19:58.916Z,61.00
2017-11-04T04:22:25.436Z,61.10
2017-11-04T04:24:51.893Z,61.20
2017-11-04T04:27:18.461Z,61.30
2017-11-04T04:29:45.738Z,61.50
2017-11-04T04:32:12.249Z,61.40
2017-11-04T04:34:39.469Z,62.00
2017-11-04T04:37:05.987Z,61.90
2017-11-04T04:39:32.548Z,62.00
2017-11-04T04:41:59.066Z,62.00
2017-11-04T04:44:25.583Z,62.10
2017-11-04T04:46:52.125Z,62.20
2017-11-04T04:49:18.625Z,62.10
2017-11-04T04:51:45.157Z,61.90
2017-11-04T04:54:11.666Z,61.70
2017-11-04T04:56:38.177Z,61.50
2017-11-04T04:59:04.617Z,60.80
2017-11-04T05:01:31.051Z,61.00
2017-11-04T05:03:57.650Z,60.90
2017-11-04T05:06:24.096Z,60.50
2017-11-04T05:08:50.559Z,60.40
2017-11-04T05:11:17.105Z,60.40
2017-11-04T05:13:43.629Z,60.40
2017-11-04T05:16:10.131Z,60.30
2017-11-04T05:18:37.452Z,60.60
2017-11-04T05:21:03.969Z,59.90
2017-11-04T05:23:30.481Z,60.00
2017-11-04T05:25:56.998Z,59.90
2017-11-04T05:28:23.470Z,59.90
2017-11-04T05:30:49.995Z,59.30
2017-11-04T05:33:16.492Z,59.20
2017-11-04T05:35:42.966Z,58.50
2017-11-04T05:49:21.260Z,58.50
2017-11-04T05:51:47.800Z,59.00
2017-11-04T05:54:14.424Z,59.00
2017-11-04T05:56:40.911Z,58.90
2017-11-04T05:59:07.385Z,58.90
2017-11-04T06:01:33.919Z,58.80
2017-11-04T06:04:00.472Z,58.40
2017-11-04T06:06:26.932Z,59.80
2017-11-04T06:08:53.477Z,57.60
2017-11-04T06:11:19.934Z,59.00
2017-11-04T06:13:46.544Z,58.40
2017-11-04T06:16:13.061Z,57.80
2017-11-04T06:18:40.284Z,58.00
2017-11-04T06:21:06.784Z,58.10
2017-11-04T06:23:33.232Z,58.50
2017-11-04T06:25:59.740Z,58.80
2017-11-04T06:28:26.255Z,59.00
2017-11-04T06:30:52.771Z,59.10
2017-11-04T06:33:19.242Z,59.30
2017-11-04T06:35:45.793Z,59.50
2017-11-04T06:40:02.981Z,60.00
2017-11-04T06:42:30.751Z,60.20
2017-11-04T06:44:58.523Z,60.40
2017-11-04T06:47:26.344Z,60.60
2017-11-04T06:49:54.113Z,61.00
2017-11-04T06:52:21.931Z,61.10
2017-11-04T06:54:49.667Z,61.20
2017-11-04T06:57:17.445Z,79.40
2017-11-04T06:59:45.220Z,67.50
2017-11-04T07:02:12.985Z,58.40
2017-11-04T07:04:40.736Z,58.20
2017-11-04T07:07:08.573Z,58.40
2017-11-04T07:09:36.324Z,58.60
2017-11-04T07:12:04.845Z,58.90
2017-11-04T07:14:32.644Z,58.90
2017-11-04T07:17:00.423Z,58.90
2017-11-04T07:19:28.181Z,59.20
2017-11-04T07:21:55.994Z,59.20
2017-11-04T07:24:23.735Z,59.30
2017-11-04T07:26:51.634Z,58.80
2017-11-04T07:29:19.393Z,58.90
2017-11-04T07:31:47.195Z,60.70
2017-11-04T07:34:15.042Z,61.10
2017-11-04T07:36:42.825Z,61.90
2017-11-04T07:39:10.631Z,62.20
2017-11-04T07:41:38.532Z,62.60
2017-11-04T07:44:06.327Z,61.80
2017-11-04T07:46:34.053Z,64.10
2017-11-04T07:49:02.623Z,61.70
2017-11-04T07:51:30.441Z,60.60
2017-11-04T07:53:58.208Z,59.10
2017-11-04T07:56:26.026Z,59.00
2017-11-04T07:58:54.520Z,58.60
2017-11-04T08:01:22.407Z,58.80
2017-11-04T08:03:50.211Z,58.90
2017-11-04T08:06:18.021Z,59.10
2017-11-04T08:08:46.507Z,59.40
2017-11-04T08:11:15.052Z,59.50
2017-11-04T08:13:42.780Z,59.40
2017-11-04T08:16:10.519Z,59.30
2017-11-04T08:18:38.324Z,59.20
2017-11-04T08:21:06.064Z,59.30
2017-11-04T08:23:33.929Z,58.90
2017-11-04T08:26:02.506Z,59.20
2017-11-04T08:28:30.312Z,59.70
2017-11-04T08:30:58.066Z,59.20
2017-11-04T08:33:25.875Z,59.30
2017-11-04T08:35:53.705Z,59.50
2017-11-04T08:38:21.475Z,60.00
2017-11-04T08:40:49.256Z,59.80
2017-11-04T08:43:17.169Z,64.90
2017-11-04T08:45:44.940Z,59.50
2017-11-04T08:48:12.706Z,58.90
2017-11-04T08:50:40.534Z,59.90
2017-11-04T08:53:08.395Z,58.90
2017-11-04T08:55:37.205Z,59.40
2017-11-04T08:58:08.232Z,63.30
2017-11-04T09:00:36.061Z,63.20
2017-11-04T09:03:05.792Z,59.80
2017-11-04T09:05:33.588Z,59.50
2017-11-04T09:08:01.448Z,59.80
2017-11-04T09:10:29.460Z,60.50
2017-11-04T09:12:57.330Z,61.00
2017-11-04T09:15:25.098Z,61.10
2017-11-04T09:17:52.954Z,61.30
2017-11-04T09:20:20.717Z,61.10
2017-11-04T09:22:48.568Z,61.20
2017-11-04T09:25:16.308Z,61.20
2017-11-04T09:27:44.055Z,60.80
2017-11-04T09:30:11.790Z,60.80
2017-11-04T09:32:39.640Z,61.00
2017-11-04T09:35:07.378Z,61.30
2017-11-04T09:37:35.182Z,61.30
2017-11-04T09:40:02.957Z,61.40
2017-11-04T09:42:30.786Z,61.10
2017-11-04T09:44:58.603Z,60.70
2017-11-04T09:47:26.438Z,60.40
2017-11-04T09:49:54.234Z,60.60
2017-11-04T09:52:22.028Z,60.00
2017-11-04T09:54:49.811Z,60.00
2017-11-04T09:57:17.564Z,60.70
2017-11-04T09:59:45.316Z,62.50
2017-11-04T10:02:14.921Z,59.80
2017-11-04T10:04:42.661Z,59.60
2017-11-04T10:07:10.458Z,60.00
2017-11-04T10:09:38.283Z,60.00
2017-11-04T10:12:06.031Z,59.90
2017-11-04T10:14:33.905Z,59.90
2017-11-04T10:17:02.485Z,60.00
2017-11-04T10:19:30.450Z,60.00
2017-11-04T10:21:58.304Z,59.90
2017-11-04T10:24:26.104Z,60.00
2017-11-04T10:26:53.992Z,59.70
2017-11-04T10:29:21.788Z,59.50
2017-11-04T10:31:49.594Z,59.50
2017-11-04T10:34:17.383Z,59.80
2017-11-04T10:36:45.182Z,60.50
2017-11-04T10:39:12.940Z,67.50
2017-11-04T10:41:41.576Z,59.90
2017-11-04T10:44:09.405Z,60.00
2017-11-04T10:46:37.297Z,59.80
2017-11-04T10:49:06.027Z,59.40
2017-11-04T10:51:35.214Z,59.40
2017-11-04T10:54:07.025Z,59.60
2017-11-04T10:56:34.937Z,59.50
2017-11-04T10:59:03.385Z,59.40
2017-11-04T11:01:35.010Z,59.00
2017-11-04T11:04:02.846Z,59.00
2017-11-04T11:06:30.811Z,59.20
2017-11-04T11:08:58.707Z,59.10
2017-11-04T11:11:26.650Z,59.80
2017-11-04T11:14:01.123Z,59.90
2017-11-04T11:16:33.567Z,59.90
2017-11-04T11:19:02.088Z,59.70
2017-11-04T11:21:33.374Z,59.60
2017-11-04T11:24:04.058Z,58.90
2017-11-04T11:40:44.667Z,58.60
2017-11-04T11:43:12.531Z,58.80
2017-11-04T11:46:28.719Z,58.90
2017-11-04T11:48:58.599Z,59.00
2017-11-04T11:54:57.850Z,59.30
2017-11-04T12:18:23.655Z,58.50
2017-11-04T12:20:51.624Z,58.20
2017-11-04T12:23:22.501Z,58.60
2017-11-04T12:25:50.345Z,58.40
2017-11-04T12:28:19.118Z,59.10
2017-11-04T12:30:47.176Z,59.30
2017-11-04T12:33:16.279Z,58.50
2017-11-04T12:35:44.356Z,58.30
2017-11-04T12:38:12.916Z,58.30
2017-11-04T12:40:40.853Z,58.20
2017-11-04T12:43:09.555Z,58.50
2017-11-04T12:45:37.442Z,58.40
2017-11-04T12:48:05.296Z,59.20
2017-11-04T12:50:37.854Z,58.30
2017-11-04T12:53:05.617Z,58.20
2017-11-04T12:55:33.343Z,58.00
2017-11-04T12:58:01.300Z,58.10
2017-11-04T13:00:29.141Z,58.30
2017-11-04T13:02:56.947Z,58.10
2017-11-04T13:05:24.709Z,58.50
2017-11-04T13:07:52.663Z,58.90
2017-11-04T13:10:20.415Z,59.10
2017-11-04T13:12:48.254Z,58.90
2017-11-04T13:15:16.071Z,59.40
2017-11-04T13:17:43.931Z,59.10
2017-11-04T13:20:11.800Z,69.80
2017-11-04T13:22:39.838Z,57.80
2017-11-04T13:25:08.512Z,57.40
2017-11-04T13:27:36.366Z,57.40
2017-11-04T13:30:04.243Z,57.90
2017-11-04T13:32:31.998Z,58.10
2017-11-04T13:34:59.896Z,78.10
2017-11-04T13:37:27.704Z,76.50
2017-11-04T13:39:55.547Z,67.20
2017-11-04T13:42:24.139Z,55.40
2017-11-04T13:44:52.666Z,55.30
2017-11-04T13:47:21.067Z,56.80
2017-11-04T13:49:49.581Z,56.30
2017-11-04T13:52:17.409Z,56.30
2017-11-04T13:54:45.196Z,56.90
2017-11-04T13:57:13.162Z,57.20
2017-11-04T13:59:41.649Z,57.20
2017-11-04T14:02:09.568Z,57.10
2017-11-04T14:04:37.387Z,57.30
2017-11-04T14:07:05.324Z,57.10
2017-11-04T14:09:33.182Z,57.10
2017-11-04T14:12:01.931Z,57.00
2017-11-04T14:14:30.058Z,57.20
2017-11-04T14:16:57.983Z,57.20
2017-11-04T14:19:29.880Z,57.40
2017-11-04T14:21:58.069Z,57.60
2017-11-04T14:24:25.932Z,57.40
2017-11-04T14:26:53.796Z,57.40
2017-11-04T14:29:22.054Z,57.50
2017-11-04T14:31:49.888Z,57.90
2017-11-04T14:34:17.628Z,57.90
2017-11-04T14:36:50.139Z,57.70
2017-11-04T14:39:18.062Z,57.60
2017-11-04T14:41:47.996Z,57.70
2017-11-04T14:44:15.850Z,57.60
2017-11-04T14:46:43.654Z,58.00
2017-11-04T14:49:13.201Z,57.80
2017-11-04T14:51:41.153Z,57.80
2017-11-04T14:54:09.994Z,58.00
2017-11-04T14:56:37.837Z,58.00
2017-11-04T14:59:05.750Z,58.10
2017-11-04T15:01:33.712Z,58.50
2017-11-04T15:04:02.336Z,58.70
2017-11-04T15:06:30.094Z,58.10
2017-11-04T15:08:57.945Z,58.00
2017-11-04T15:11:26.927Z,58.00
2017-11-04T15:13:55.879Z,58.10
2017-11-04T15:16:24.700Z,58.20
2017-11-04T15:18:52.461Z,60.00
2017-11-04T15:21:20.215Z,58.30
2017-11-04T15:23:48.719Z,58.30
2017-11-04T15:26:16.573Z,73.90
2017-11-04T15:28:44.465Z,57.30
2017-11-04T15:31:12.410Z,57.50
2017-11-04T15:33:40.255Z,57.90
2017-11-04T15:36:12.612Z,58.00
2017-11-04T15:38:43.500Z,58.00
2017-11-04T15:41:14.449Z,58.20
2017-11-04T15:43:42.360Z,58.40
2017-11-04T15:46:10.188Z,58.40
2017-11-04T15:48:41.486Z,58.30
2017-11-04T15:51:10.039Z,58.50
2017-11-04T15:53:37.834Z,58.30
2017-11-04T15:56:05.672Z,58.10
2017-11-04T15:58:33.686Z,58.50
2017-11-04T16:01:01.563Z,58.80
2017-11-04T16:03:29.505Z,58.60
2017-11-04T16:05:57.367Z,58.80
2017-11-04T16:08:25.207Z,59.00
2017-11-04T16:10:53.861Z,59.30
2017-11-04T16:13:21.779Z,59.40
2017-11-04T16:16:01.423Z,59.60
2017-11-04T16:18:29.210Z,59.70
2017-11-04T16:20:57.590Z,59.60
2017-11-04T16:23:26.243Z,59.40
2017-11-04T16:25:54.026Z,59.30
2017-11-04T16:28:21.843Z,59.20
2017-11-04T16:30:50.404Z,59.70
2017-11-04T16:33:18.155Z,59.70
2017-11-04T16:35:47.119Z,59.90
2017-11-04T16:38:15.047Z,59.90
2017-11-04T16:40:43.405Z,60.10
2017-11-04T16:43:11.226Z,60.50
2017-11-04T16:45:39.110Z,60.50
2017-11-04T16:48:06.885Z,60.60
2017-11-04T16:50:34.732Z,61.10
2017-11-04T16:53:03.965Z,62.30
2017-11-04T16:55:41.148Z,62.20
2017-11-04T16:58:09.025Z,61.80
2017-11-04T17:00:38.297Z,61.00
2017-11-04T17:03:25.424Z,61.20
2017-11-04T17:05:54.510Z,61.20
2017-11-04T17:08:22.298Z,61.90
2017-11-04T17:10:50.103Z,60.50
2017-11-04T17:13:17.907Z,60.50
2017-11-04T17:15:47.822Z,60.70
2017-11-04T17:18:16.413Z,60.80
2017-11-04T17:20:44.246Z,60.70
2017-11-04T17:23:12.030Z,61.30
2017-11-04T17:25:40.640Z,61.50
2017-11-04T17:28:08.503Z,61.50
2017-11-04T17:30:36.394Z,61.30
2017-11-04T17:33:05.600Z,61.20
2017-11-04T17:35:46.967Z,61.70
2017-11-04T17:41:51.882Z,60.90
2017-11-04T17:44:19.794Z,61.20
2017-11-04T17:46:48.181Z,60.90
2017-11-04T17:49:15.919Z,61.40
2017-11-04T17:51:44.043Z,61.80
2017-11-04T17:54:11.943Z,62.50
2017-11-04T17:56:39.797Z,62.80
2017-11-04T17:59:08.054Z,63.00
2017-11-04T18:01:35.999Z,63.00
2017-11-04T18:04:03.835Z,62.70
2017-11-04T18:28:06.955Z,63.00
2017-11-04T18:30:54.193Z,62.40
2017-11-04T18:33:22.897Z,62.10
2017-11-04T18:35:53.331Z,62.20
2017-11-04T18:38:27.824Z,62.10
2017-11-04T18:40:57.992Z,61.80
2017-11-04T18:43:26.594Z,61.50
2017-11-04T18:50:01.230Z,62.40
2017-11-04T18:55:51.562Z,62.50
2017-11-04T18:58:28.311Z,62.00
2017-11-04T19:00:57.535Z,62.50
2017-11-04T19:03:26.921Z,62.70
2017-11-04T19:05:57.707Z,62.50
2017-11-04T19:08:26.710Z,62.30
2017-11-04T19:10:54.541Z,62.70
2017-11-04T19:13:22.388Z,62.70
2017-11-04T19:15:50.241Z,63.00
2017-11-04T19:18:17.999Z,64.10
2017-11-04T19:20:45.905Z,65.60
2017-11-04T19:23:13.646Z,63.40
2017-11-04T19:25:41.363Z,63.10
2017-11-04T19:28:15.151Z,62.80
2017-11-04T19:30:45.819Z,62.70
2017-11-04T19:33:30.465Z,62.70
2017-11-04T19:35:59.096Z,62.80
2017-11-04T19:38:27.075Z,62.80
2017-11-04T19:40:54.860Z,63.00
2017-11-04T19:43:22.632Z,63.60
2017-11-04T19:45:51.386Z,63.30
2017-11-04T19:48:19.215Z,63.40
2017-11-04T19:50:47.730Z,63.50
2017-11-04T19:53:35.287Z,63.30
2017-11-04T19:56:03.241Z,63.40
2017-11-04T19:58:31.339Z,63.40
2017-11-04T20:00:59.619Z,63.30
2017-11-04T20:03:28.733Z,64.00
2017-11-04T20:05:56.547Z,63.30
2017-11-04T20:08:24.956Z,63.00
2017-11-04T20:10:53.430Z,63.10
2017-11-04T20:13:22.742Z,62.90
2017-11-04T20:15:50.936Z,62.80
2017-11-04T20:18:20.393Z,62.80
2017-11-04T20:20:49.905Z,62.70
2017-11-04T20:23:17.800Z,63.10
2017-11-04T20:25:45.632Z,63.00
2017-11-04T20:28:13.499Z,63.00
2017-11-04T20:30:41.487Z,63.30
2017-11-04T20:33:10.187Z,63.20
2017-11-04T20:35:38.010Z,63.30
2017-11-04T20:38:06.520Z,63.00
2017-11-04T20:40:34.388Z,63.20
2017-11-04T20:43:02.130Z,63.10
2017-11-04T20:45:30.764Z,63.30
2017-11-04T20:47:58.518Z,63.20
2017-11-04T20:50:26.302Z,63.00
2017-11-04T20:52:55.752Z,63.30
2017-11-04T20:55:23.636Z,63.70
2017-11-04T20:57:51.456Z,63.50
2017-11-04T21:00:20.561Z,63.80
2017-11-04T21:02:48.372Z,64.00
2017-11-04T21:05:16.215Z,64.10
2017-11-04T21:07:44.042Z,64.00
2017-11-04T21:10:11.872Z,63.80
2017-11-04T21:12:39.721Z,64.20
2017-11-04T21:15:07.453Z,64.10
2017-11-04T21:17:35.294Z,63.70
2017-11-04T21:20:21.157Z,63.60
2017-11-04T21:22:49.014Z,63.40
2017-11-04T21:25:18.235Z,63.40
2017-11-04T21:27:46.488Z,63.10
2017-11-04T21:30:14.457Z,63.30
2017-11-04T21:32:42.229Z,63.10
2017-11-04T21:35:10.036Z,63.00
2017-11-04T21:37:37.894Z,63.30
2017-11-04T21:40:05.786Z,63.10
2017-11-04T21:42:33.546Z,62.90
2017-11-04T21:45:01.444Z,63.10
2017-11-04T21:47:29.528Z,62.80
2017-11-04T21:49:57.333Z,62.60
2017-11-04T21:52:25.184Z,62.10
2017-11-04T21:54:52.954Z,61.80
2017-11-04T21:57:20.736Z,61.90
2017-11-04T21:59:49.389Z,62.50
2017-11-04T22:02:17.204Z,62.40
2017-11-04T22:05:28.466Z,62.90
2017-11-04T22:07:56.379Z,63.20
2017-11-04T22:10:24.308Z,62.50
2017-11-04T22:12:52.123Z,62.70
2017-11-04T22:15:19.993Z,62.70
2017-11-04T22:17:47.923Z,62.50
2017-11-04T22:20:15.718Z,62.50
2017-11-04T22:22:43.629Z,63.20
2017-11-04T22:25:11.524Z,61.50
2017-11-04T22:27:39.429Z,61.50
2017-11-04T22:30:07.286Z,61.70
2017-11-04T22:32:35.269Z,62.00
2017-11-04T22:35:03.232Z,61.90
2017-11-04T22:37:31.122Z,62.10
2017-11-04T22:39:59.022Z,62.40
2017-11-04T22:42:27.678Z,62.20
2017-11-04T22:44:55.554Z,62.00
2017-11-04T22:47:23.406Z,62.20
2017-11-04T22:49:51.200Z,62.40
2017-11-04T22:52:19.143Z,63.00
2017-11-04T22:54:46.926Z,63.40
2017-11-04T22:57:14.713Z,63.40
2017-11-04T22:59:42.623Z,63.50
2017-11-04T23:02:10.491Z,63.90
2017-11-04T23:04:38.369Z,63.90
2017-11-04T23:07:07.050Z,64.30
2017-11-04T23:09:36.347Z,64.00
2017-11-04T23:12:04.281Z,64.00
2017-11-04T23:14:32.124Z,63.50
2017-11-04T23:17:00.001Z,63.90
2017-11-04T23:19:27.804Z,63.90
2017-11-04T23:21:55.810Z,63.80
2017-11-04T23:24:25.332Z,63.90
2017-11-04T23:26:53.141Z,63.90
2017-11-04T23:29:21.011Z,64.10
2017-11-04T23:31:49.022Z,64.10
2017-11-04T23:34:17.622Z,64.50
2017-11-04T23:36:49.411Z,64.40
2017-11-04T23:39:17.215Z,64.00
2017-11-04T23:41:45.005Z,65.00
2017-11-04T23:44:13.554Z,64.10
2017-11-04T23:46:41.417Z,64.00
2017-11-04T23:49:09.354Z,64.10
2017-11-04T23:51:37.249Z,63.70
2017-11-04T23:54:05.133Z,68.80
2017-11-04T23:56:32.989Z,63.20
2017-11-04T23:59:00.835Z,69.20
